Back to Top

Language: 

My Weather Underground Personal Weather Station Historical Data with Graphs...

Delerius Weather Station Historical Data
Daily Summary for January 24, 2018 Units:  Metric    English   Both
« Previous Day
Next Day »
Daily Weekly Monthly Yearly Custom
  High: Low: Average:
Temperature: 12.9 °C 6.1 °C 8.4 °C
Dew Point: 10.2 °C 3.2 °C 5.7 °C
Humidity: 90 % 78 % 83 %
Wind Speed: 45.1 km/h 14.5 km/h 24.8 km/h
Wind Gust: 74 km/h - -
Wind:- - SW
Pressure: 1005.3 hPa 993.1 hPa -
Precipitation: 2.79 mm    
Historical Graphs
 
 
Tabular Data for January 24, 2018
Time Temperature Dew Point Pressure Wind Wind Speed Wind Gust Humidity Rainfall Rate (Hourly) solar Conditions
00:04 10.1 °C 7.3 °C 1005.3 hPa SSW 17.7 km/h 24.1 km/h 83 % 0 mm 0 W/m2
00:09 10.1 °C 7.3 °C 1005.3 hPa SW 19.3 km/h 30.6 km/h 83 % 0 mm 0 W/m2
00:24 10.2 °C 7.4 °C 1004.6 hPa SW 19.3 km/h 32.2 km/h 83 % 0 mm 0 W/m2
00:34 10.2 °C 7.6 °C 1004.6 hPa SSW 16.1 km/h 32.2 km/h 84 % 0 mm 0 W/m2
00:39 10.2 °C 7.6 °C 1004.3 hPa SSW 22.5 km/h 40.2 km/h 84 % 0 mm 0 W/m2
00:44 10.3 °C 7.7 °C 1004.3 hPa SW 22.5 km/h 40.2 km/h 84 % 0 mm 0 W/m2
00:49 10.3 °C 7.6 °C 1004.3 hPa SW 19.3 km/h 30.6 km/h 83 % 0 mm 0 W/m2
00:59 10.4 °C 7.6 °C 1003.9 hPa SW 25.7 km/h 43.5 km/h 83 % 0 mm 0 W/m2
01:09 10.4 °C 7.6 °C 1003.9 hPa SSW 20.9 km/h 35.4 km/h 83 % 0 mm 0 W/m2
01:14 10.3 °C 7.6 °C 1003.6 hPa SW 24.1 km/h 41.8 km/h 83 % 0 mm 0 W/m2
01:19 10.3 °C 7.6 °C 1003.3 hPa SSW 30.6 km/h 43.5 km/h 83 % 0 mm 0 W/m2
01:24 10.4 °C 7.6 °C 1003.3 hPa SW 22.5 km/h 38.6 km/h 83 % 0 mm 0 W/m2
01:29 10.4 °C 7.6 °C 1003.3 hPa SW 27.4 km/h 43.5 km/h 83 % 0 mm 0 W/m2
01:39 10.3 °C 7.6 °C 1002.6 hPa SW 22.5 km/h 37 km/h 83 % 0 mm 0 W/m2
01:44 10.3 °C 7.6 °C 1002.3 hPa SW 22.5 km/h 45.1 km/h 83 % 0 mm 0 W/m2
01:49 10.3 °C 7.6 °C 1002.3 hPa SSW 27.4 km/h 43.5 km/h 83 % 0 mm 0 W/m2
01:54 10.2 °C 7.4 °C 1001.9 hPa SSW 24.1 km/h 41.8 km/h 83 % 0 mm 0 W/m2
02:04 10.1 °C 7.7 °C 1001.6 hPa SSW 19.3 km/h 32.2 km/h 85 % 0 mm 0 W/m2
02:09 9.9 °C 7.5 °C 1001.6 hPa SSW 25.7 km/h 46.7 km/h 85 % 0 mm 0 W/m2
02:14 9.9 °C 7.7 °C 1001.6 hPa SW 29 km/h 45.1 km/h 86 % 0 mm 0 W/m2
02:24 9.8 °C 7.6 °C 1001.6 hPa SSW 27.4 km/h 43.5 km/h 86 % 0 mm 0 W/m2
02:29 9.8 °C 7.6 °C 1001.2 hPa SSW 25.7 km/h 41.8 km/h 86 % 0 mm 0 W/m2
02:34 9.9 °C 7.7 °C 1001.2 hPa SSW 29 km/h 49.9 km/h 86 % 0 mm 0 W/m2
02:39 10 °C 7.8 °C 1000.9 hPa SSW 29 km/h 46.7 km/h 86 % 0 mm 0 W/m2
02:44 10 °C 7.8 °C 1000.6 hPa SSW 30.6 km/h 43.5 km/h 86 % 0 mm 0 W/m2
02:55 10.1 °C 7.9 °C 1000.6 hPa SSW 40.2 km/h 59.5 km/h 86 % 0 mm 0 W/m2
03:00 10.1 °C 7.9 °C 1000.2 hPa SSW 33.8 km/h 53.1 km/h 86 % 0 mm 0 W/m2
03:04 10 °C 7.8 °C 1000.2 hPa SW 33.8 km/h 51.5 km/h 86 % 0 mm 0 W/m2
03:10 10 °C 7.8 °C 1000.2 hPa SSW 33.8 km/h 53.1 km/h 86 % 0 mm 0 W/m2
03:15 10 °C 7.6 °C 999.9 hPa SSW 27.4 km/h 46.7 km/h 85 % 0 mm 0 W/m2
03:20 10 °C 7.8 °C 999.9 hPa SSW 32.2 km/h 48.3 km/h 86 % 0 mm 0 W/m2
03:25 10 °C 7.8 °C 999.5 hPa SSW 29 km/h 46.7 km/h 86 % 0 mm 0 W/m2
03:30 10.1 °C 7.7 °C 999.5 hPa SSW 35.4 km/h 51.5 km/h 85 % 0 mm 0 W/m2
03:35 10.1 °C 7.7 °C 999.2 hPa SSW 35.4 km/h 56.3 km/h 85 % 0 mm 0 W/m2
03:40 10.1 °C 7.7 °C 998.9 hPa SW 37 km/h 53.1 km/h 85 % 0 mm 0 W/m2
03:45 10.2 °C 7.8 °C 998.9 hPa SSW 33.8 km/h 54.7 km/h 85 % 0 mm 0 W/m2
03:50 10.2 °C 7.8 °C 998.5 hPa SSW 35.4 km/h 57.9 km/h 85 % 0 mm 0 W/m2
03:55 10.2 °C 7.8 °C 998.5 hPa SSW 25.7 km/h 45.1 km/h 85 % 0 mm 0 W/m2
04:00 10.2 °C 7.8 °C 998.2 hPa SSW 33.8 km/h 49.9 km/h 85 % 0 mm 0 W/m2
04:05 10.3 °C 7.9 °C 997.9 hPa SSW 32.2 km/h 46.7 km/h 85 % 0 mm 0 W/m2
04:10 10.4 °C 8 °C 997.9 hPa SSW 33.8 km/h 62.8 km/h 85 % 0 mm 0 W/m2
04:20 10.6 °C 8 °C 997.5 hPa SSW 38.6 km/h 56.3 km/h 84 % 0 mm 0 W/m2
04:25 10.7 °C 8.1 °C 997.5 hPa SSW 29 km/h 49.9 km/h 84 % 0 mm 0 W/m2
04:30 10.7 °C 8.3 °C 997.2 hPa SSW 41.8 km/h 57.9 km/h 85 % 0 mm 0 W/m2
04:50 11.1 °C 8.5 °C 996.5 hPa SSW 32.2 km/h 51.5 km/h 84 % 0 mm 0 W/m2
04:55 11.1 °C 8.5 °C 996.8 hPa SSW 32.2 km/h 51.5 km/h 84 % 0 mm 0 W/m2
05:00 11.2 °C 8.6 °C 996.2 hPa SSW 38.6 km/h 59.5 km/h 84 % 0 mm 0 W/m2
05:05 11.2 °C 8.6 °C 996.2 hPa SSW 32.2 km/h 49.9 km/h 84 % 0 mm 0 W/m2
05:10 11.4 °C 8.8 °C 995.8 hPa SSW 40.2 km/h 66 km/h 84 % 0 mm 0 W/m2
05:18 11.6 °C 8.8 °C 995.8 hPa SSW 41.8 km/h 74 km/h 83 % 0 mm 0 W/m2
05:28 11.7 °C 8.9 °C 995.5 hPa SSW 40.2 km/h 51.5 km/h 83 % 0 mm 0 W/m2
05:33 11.8 °C 9 °C 995.5 hPa SSW 40.2 km/h 57.9 km/h 83 % 0 mm 0 W/m2
05:38 11.9 °C 9.1 °C 995.5 hPa SSW 37 km/h 62.8 km/h 83 % 0 mm 0 W/m2
05:48 12.2 °C 9.2 °C 995.5 hPa SSW 41.8 km/h 70.8 km/h 82 % 0 mm 0 W/m2
05:53 12.3 °C 9.1 °C 994.8 hPa SSW 35.4 km/h 70.8 km/h 81 % 0 mm 0 W/m2
06:03 12.5 °C 9.3 °C 994.5 hPa SSW 38.6 km/h 57.9 km/h 81 % 0 mm 0 W/m2
06:08 12.6 °C 9.4 °C 994.8 hPa SW 38.6 km/h 62.8 km/h 81 % 0 mm 0 W/m2
06:13 12.6 °C 9.4 °C 994.8 hPa SSW 41.8 km/h 67.6 km/h 81 % 0 mm 0 W/m2
06:18 12.7 °C 9.3 °C 994.5 hPa SSW 37 km/h 64.4 km/h 80 % 0 mm 0 W/m2
06:28 12.8 °C 9.4 °C 994.5 hPa SW 32.2 km/h 53.1 km/h 80 % 0 mm 0 W/m2
06:38 12.9 °C 9.6 °C 994.1 hPa SW 40.2 km/h 57.9 km/h 80 % 0 mm 0 W/m2
06:59 12.7 °C 9.9 °C 993.8 hPa SW 45.1 km/h 66 km/h 83 % 0 mm 0 W/m2
07:04 12.6 °C 9.9 °C 993.5 hPa SW 41.8 km/h 66 km/h 84 % 0 mm 0 W/m2
07:09 12.4 °C 9.9 °C 993.5 hPa SSW 35.4 km/h 62.8 km/h 85 % 0 mm 0 W/m2
07:19 12.4 °C 9.9 °C 993.1 hPa SW 37 km/h 56.3 km/h 85 % 0 mm 0 W/m2
07:24 12.4 °C 9.9 °C 993.1 hPa SW 30.6 km/h 49.9 km/h 85 % 0 mm 0 W/m2
07:29 12.3 °C 10.2 °C 993.5 hPa SW 33.8 km/h 54.7 km/h 87 % 0 mm 0 W/m2
07:34 12.1 °C 10.2 °C 993.1 hPa SW 35.4 km/h 49.9 km/h 88 % 0 mm 0 W/m2
07:39 12 °C 10.1 °C 993.8 hPa SW 27.4 km/h 43.5 km/h 88 % 0 mm 0 W/m2
07:44 11.3 °C 9.1 °C 994.8 hPa WSW 37 km/h 53.1 km/h 86 % 0.25 mm 0 W/m2
07:49 10.4 °C 8.5 °C 994.8 hPa WSW 30.6 km/h 46.7 km/h 88 % 0.51 mm 0 W/m2
07:54 9.9 °C 8 °C 994.8 hPa West 33.8 km/h 45.1 km/h 88 % 0.51 mm 0 W/m2
07:59 9.7 °C 7.8 °C 994.8 hPa West 29 km/h 41.8 km/h 88 % 0.51 mm 0 W/m2
08:04 9.5 °C 7.6 °C 995.1 hPa West 32.2 km/h 49.9 km/h 88 % 0.51 mm 0 W/m2
08:09 9.4 °C 7.5 °C 995.1 hPa West 25.7 km/h 49.9 km/h 88 % 0.51 mm 0 W/m2
08:14 9.2 °C 7.5 °C 995.5 hPa West 29 km/h 46.7 km/h 89 % 0.51 mm 5 W/m2
08:24 9.1 °C 7.2 °C 995.5 hPa WSW 30.6 km/h 51.5 km/h 88 % 0.51 mm 9 W/m2
08:29 8.9 °C 7.2 °C 995.5 hPa West 22.5 km/h 33.8 km/h 89 % 0.51 mm 7 W/m2
08:39 8.7 °C 7.2 °C 995.5 hPa WSW 32.2 km/h 46.7 km/h 90 % 0.76 mm 5 W/m2
08:45 8.5 °C 6.8 °C 995.5 hPa WSW 27.4 km/h 41.8 km/h 89 % 0.76 mm 5 W/m2
08:55 8.2 °C 6.3 °C 996.2 hPa WSW 29 km/h 45.1 km/h 88 % 0.76 mm 7 W/m2
09:05 7.9 °C 5.9 °C 995.8 hPa WSW 35.4 km/h 57.9 km/h 87 % 1.02 mm 9 W/m2
09:10 7.8 °C 5.9 °C 995.8 hPa WSW 32.2 km/h 49.9 km/h 88 % 1.27 mm 14 W/m2
09:20 7.7 °C 5.8 °C 995.8 hPa WSW 29 km/h 45.1 km/h 88 % 1.52 mm 18 W/m2
09:25 7.6 °C 5.7 °C 996.2 hPa WSW 32.2 km/h 43.5 km/h 88 % 1.52 mm 12 W/m2
09:30 7.6 °C 5.7 °C 996.2 hPa WSW 30.6 km/h 41.8 km/h 88 % 1.27 mm 14 W/m2
09:35 7.4 °C 5.4 °C 996.5 hPa WSW 32.2 km/h 51.5 km/h 87 % 1.27 mm 18 W/m2
09:40 7.3 °C 5.3 °C 996.2 hPa WSW 33.8 km/h 53.1 km/h 87 % 1.02 mm 26 W/m2
09:45 7.2 °C 5.3 °C 995.8 hPa WSW 25.7 km/h 43.5 km/h 88 % 0.76 mm 39 W/m2
09:50 7.1 °C 5.4 °C 995.8 hPa West 22.5 km/h 37 km/h 89 % 0.76 mm 42 W/m2
09:55 6.9 °C 5.2 °C 995.5 hPa West 25.7 km/h 43.5 km/h 89 % 0.51 mm 35 W/m2
10:00 6.9 °C 5.2 °C 995.8 hPa WSW 24.1 km/h 38.6 km/h 89 % 0.76 mm 26 W/m2
10:05 6.9 °C 5.4 °C 996.2 hPa WSW 22.5 km/h 33.8 km/h 90 % 0.51 mm 28 W/m2
10:10 6.9 °C 5.4 °C 996.2 hPa WSW 24.1 km/h 43.5 km/h 90 % 0.51 mm 28 W/m2
10:15 6.9 °C 5.2 °C 996.5 hPa WSW 20.9 km/h 40.2 km/h 89 % 0.51 mm 21 W/m2
10:20 6.9 °C 5.2 °C 996.5 hPa WSW 17.7 km/h 32.2 km/h 89 % 0.51 mm 14 W/m2
10:25 6.9 °C 5.2 °C 996.5 hPa WSW 22.5 km/h 38.6 km/h 89 % 0.51 mm 21 W/m2
10:30 6.9 °C 5.2 °C 996.8 hPa SW 22.5 km/h 33.8 km/h 89 % 0.51 mm 21 W/m2
10:35 6.9 °C 5.2 °C 996.5 hPa WSW 19.3 km/h 33.8 km/h 89 % 0.76 mm 25 W/m2
10:40 6.9 °C 5.2 °C 996.5 hPa WSW 20.9 km/h 35.4 km/h 89 % 0.76 mm 26 W/m2
10:45 6.9 °C 5.2 °C 996.5 hPa WSW 14.5 km/h 20.9 km/h 89 % 0.76 mm 37 W/m2
10:50 6.9 °C 5.4 °C 996.5 hPa WSW 17.7 km/h 25.7 km/h 90 % 0.76 mm 30 W/m2
10:55 6.9 °C 5.4 °C 996.5 hPa WSW 17.7 km/h 24.1 km/h 90 % 1.02 mm 30 W/m2
11:00 6.9 °C 5.4 °C 996.5 hPa SW 22.5 km/h 33.8 km/h 90 % 0.76 mm 28 W/m2
11:05 6.9 °C 5.2 °C 996.5 hPa SW 19.3 km/h 33.8 km/h 89 % 0.76 mm 30 W/m2
11:10 6.9 °C 5.2 °C 996.8 hPa WSW 20.9 km/h 32.2 km/h 89 % 0.76 mm 21 W/m2
11:15 6.9 °C 5.2 °C 996.8 hPa WSW 25.7 km/h 40.2 km/h 89 % 0.51 mm 19 W/m2
11:20 7 °C 5.2 °C 996.5 hPa SW 29 km/h 45.1 km/h 88 % 0.51 mm 23 W/m2
11:26 7.1 °C 5.1 °C 996.5 hPa SW 25.7 km/h 53.1 km/h 87 % 0.51 mm 28 W/m2
11:31 7.2 °C 4.8 °C 996.5 hPa SW 27.4 km/h 41.8 km/h 85 % 0.25 mm 30 W/m2
11:35 7.2 °C 4.8 °C 996.8 hPa WSW 30.6 km/h 45.1 km/h 85 % 0.25 mm 28 W/m2
11:41 7.3 °C 4.8 °C 996.5 hPa SW 32.2 km/h 51.5 km/h 84 % 0.25 mm 47 W/m2
11:46 7.3 °C 4.8 °C 996.2 hPa SW 29 km/h 51.5 km/h 84 % 0.25 mm 47 W/m2
11:51 7.3 °C 4.8 °C 996.2 hPa SW 24.1 km/h 37 km/h 84 % 0.25 mm 35 W/m2
11:56 7.2 °C 4.7 °C 995.8 hPa SW 29 km/h 43.5 km/h 84 % 0 mm 44 W/m2
12:01 7.3 °C 4.8 °C 996.2 hPa SW 30.6 km/h 51.5 km/h 84 % 0 mm 26 W/m2
12:06 7.3 °C 4.6 °C 996.2 hPa SW 30.6 km/h 48.3 km/h 83 % 0 mm 37 W/m2
12:11 7.3 °C 4.8 °C 995.8 hPa SW 22.5 km/h 30.6 km/h 84 % 0 mm 39 W/m2
12:16 7.2 °C 4.7 °C 996.2 hPa SW 20.9 km/h 32.2 km/h 84 % 0 mm 39 W/m2
12:21 7.2 °C 4.7 °C 996.5 hPa SW 24.1 km/h 43.5 km/h 84 % 0 mm 40 W/m2
12:26 7.3 °C 4.8 °C 996.5 hPa SW 27.4 km/h 45.1 km/h 84 % 0 mm 65 W/m2
12:31 7.3 °C 4.8 °C 996.2 hPa WSW 22.5 km/h 35.4 km/h 84 % 0 mm 114 W/m2
12:36 7.4 °C 4.7 °C 995.8 hPa SW 20.9 km/h 32.2 km/h 83 % 0 mm 60 W/m2
12:41 7.4 °C 4.7 °C 996.5 hPa SW 22.5 km/h 33.8 km/h 83 % 0 mm 60 W/m2
12:46 7.5 °C 4.8 °C 996.8 hPa SW 25.7 km/h 37 km/h 83 % 0 mm 67 W/m2
12:51 7.6 °C 4.7 °C 996.2 hPa SW 20.9 km/h 35.4 km/h 82 % 0 mm 91 W/m2
12:56 7.6 °C 4.7 °C 996.5 hPa SW 25.7 km/h 40.2 km/h 82 % 0 mm 113 W/m2
13:01 7.7 °C 4.8 °C 996.8 hPa WSW 22.5 km/h 33.8 km/h 82 % 0 mm 104 W/m2
13:02 7.7 °C 4.8 °C 996.8 hPa SW 24.1 km/h 35.4 km/h 82 % 0 mm 102 W/m2
13:07 7.8 °C 4.9 °C 996.8 hPa SW 24.1 km/h 46.7 km/h 82 % 0 mm 116 W/m2
13:12 7.9 °C 5 °C 996.2 hPa SW 20.9 km/h 32.2 km/h 82 % 0 mm 95 W/m2
13:17 7.9 °C 5 °C 996.5 hPa SW 22.5 km/h 37 km/h 82 % 0 mm 98 W/m2
13:22 8 °C 4.9 °C 996.5 hPa SW 22.5 km/h 37 km/h 81 % 0 mm 84 W/m2
13:27 8 °C 5.1 °C 996.8 hPa SW 25.7 km/h 48.3 km/h 82 % 0 mm 100 W/m2
13:37 8.1 °C 5.2 °C 996.2 hPa SW 16.1 km/h 32.2 km/h 82 % 0 mm 107 W/m2
13:42 8.2 °C 5.3 °C 996.5 hPa SW 17.7 km/h 32.2 km/h 82 % 0 mm 95 W/m2
13:47 8.2 °C 5.3 °C 996.5 hPa SW 22.5 km/h 35.4 km/h 82 % 0 mm 76 W/m2
13:52 8.2 °C 5.3 °C 996.2 hPa WSW 19.3 km/h 30.6 km/h 82 % 0 mm 97 W/m2
13:57 8.2 °C 5.3 °C 996.2 hPa SW 20.9 km/h 35.4 km/h 82 % 0 mm 90 W/m2
14:07 8.3 °C 5.2 °C 996.8 hPa SW 25.7 km/h 43.5 km/h 81 % 0 mm 109 W/m2
14:12 8.4 °C 5.3 °C 996.5 hPa SW 20.9 km/h 37 km/h 81 % 0 mm 111 W/m2
14:17 8.4 °C 5.3 °C 996.2 hPa SW 17.7 km/h 29 km/h 81 % 0 mm 79 W/m2
14:22 8.4 °C 5.3 °C 996.5 hPa SW 22.5 km/h 40.2 km/h 81 % 0 mm 95 W/m2
14:27 8.4 °C 5.3 °C 996.5 hPa SW 19.3 km/h 32.2 km/h 81 % 0 mm 67 W/m2
14:32 8.4 °C 5.3 °C 996.5 hPa SW 20.9 km/h 33.8 km/h 81 % 0 mm 72 W/m2
14:37 8.4 °C 5.3 °C 996.5 hPa SW 14.5 km/h 24.1 km/h 81 % 0 mm 74 W/m2
14:42 8.4 °C 5.3 °C 996.5 hPa SW 20.9 km/h 33.8 km/h 81 % 0 mm 63 W/m2
14:47 8.4 °C 5.3 °C 996.5 hPa SW 19.3 km/h 32.2 km/h 81 % 0 mm 54 W/m2
14:52 8.4 °C 5.3 °C 996.5 hPa SW 20.9 km/h 30.6 km/h 81 % 0 mm 42 W/m2
14:57 8.4 °C 5.3 °C 996.8 hPa SW 24.1 km/h 33.8 km/h 81 % 0 mm 53 W/m2
15:08 8.4 °C 5.5 °C 996.5 hPa SW 20.9 km/h 30.6 km/h 82 % 0 mm 35 W/m2
15:13 8.4 °C 5.5 °C 996.8 hPa SW 19.3 km/h 29 km/h 82 % 0 mm 54 W/m2
15:18 8.3 °C 5.4 °C 996.8 hPa WSW 19.3 km/h 32.2 km/h 82 % 0 mm 60 W/m2
15:23 8.3 °C 5.4 °C 996.8 hPa WSW 14.5 km/h 20.9 km/h 82 % 0 mm 25 W/m2
15:28 8.3 °C 5.4 °C 996.8 hPa SW 19.3 km/h 29 km/h 82 % 0 mm 26 W/m2
15:33 8.2 °C 5.3 °C 996.8 hPa SW 22.5 km/h 35.4 km/h 82 % 0 mm 47 W/m2
15:38 8.2 °C 5.3 °C 996.8 hPa WSW 16.1 km/h 32.2 km/h 82 % 0 mm 30 W/m2
15:43 8 °C 5.3 °C 996.8 hPa WSW 22.5 km/h 38.6 km/h 83 % 0 mm 37 W/m2
15:48 8 °C 5.1 °C 996.8 hPa SW 16.1 km/h 24.1 km/h 82 % 0 mm 33 W/m2
15:53 8 °C 5.1 °C 996.8 hPa WSW 16.1 km/h 24.1 km/h 82 % 0 mm 26 W/m2
15:58 8 °C 5.1 °C 996.8 hPa SW 16.1 km/h 32.2 km/h 82 % 0 mm 23 W/m2
16:03 8 °C 5.1 °C 997.2 hPa WSW 24.1 km/h 33.8 km/h 82 % 0 mm 21 W/m2
16:13 8.1 °C 4.8 °C 997.2 hPa WSW 20.9 km/h 33.8 km/h 80 % 0 mm 14 W/m2
16:18 8.1 °C 4.7 °C 997.2 hPa WSW 19.3 km/h 33.8 km/h 79 % 0 mm 11 W/m2
16:23 8.1 °C 4.8 °C 997.2 hPa WSW 20.9 km/h 32.2 km/h 80 % 0 mm 9 W/m2
16:28 8 °C 4.8 °C 997.2 hPa WSW 20.9 km/h 30.6 km/h 80 % 0 mm 7 W/m2
16:38 7.9 °C 4.7 °C 997.2 hPa SW 19.3 km/h 30.6 km/h 80 % 0 mm 5 W/m2
16:43 7.9 °C 4.7 °C 997.2 hPa SW 22.5 km/h 33.8 km/h 80 % 0 mm 0 W/m2
16:48 7.9 °C 4.7 °C 997.2 hPa SW 19.3 km/h 25.7 km/h 80 % 0 mm 0 W/m2
16:58 7.9 °C 4.3 °C 997.5 hPa SW 27.4 km/h 41.8 km/h 78 % 0 mm 0 W/m2
17:03 7.9 °C 4.3 °C 997.5 hPa SW 24.1 km/h 43.5 km/h 78 % 0 mm 0 W/m2
17:08 7.8 °C 4.2 °C 997.5 hPa WSW 20.9 km/h 29 km/h 78 % 0 mm 0 W/m2
17:13 7.7 °C 4.1 °C 997.5 hPa SW 22.5 km/h 35.4 km/h 78 % 0 mm 0 W/m2
17:18 7.7 °C 4.3 °C 997.5 hPa WSW 20.9 km/h 30.6 km/h 79 % 0 mm 0 W/m2
17:28 7.6 °C 4.2 °C 997.5 hPa WSW 24.1 km/h 40.2 km/h 79 % 0 mm 0 W/m2
17:33 7.6 °C 4.2 °C 997.5 hPa SW 22.5 km/h 33.8 km/h 79 % 0 mm 0 W/m2
17:38 7.5 °C 4.1 °C 997.9 hPa SW 20.9 km/h 30.6 km/h 79 % 0 mm 0 W/m2
17:48 7.4 °C 4.2 °C 997.9 hPa WSW 20.9 km/h 35.4 km/h 80 % 0 mm 0 W/m2
17:53 7.4 °C 4.2 °C 997.9 hPa SW 16.1 km/h 24.1 km/h 80 % 0 mm 0 W/m2
18:13 7.3 °C 4.3 °C 998.2 hPa WSW 16.1 km/h 25.7 km/h 81 % 0 mm 0 W/m2
18:19 7.3 °C 4.3 °C 998.2 hPa WSW 17.7 km/h 25.7 km/h 81 % 0 mm 0 W/m2
18:23 7.2 °C 4.2 °C 998.2 hPa WSW 16.1 km/h 29 km/h 81 % 0 mm 0 W/m2
18:29 7.2 °C 4.2 °C 998.2 hPa SW 19.3 km/h 32.2 km/h 81 % 0 mm 0 W/m2
18:34 7.2 °C 4.2 °C 998.5 hPa WSW 16.1 km/h 24.1 km/h 81 % 0 mm 0 W/m2
18:39 7.2 °C 4.2 °C 998.5 hPa WSW 17.7 km/h 29 km/h 81 % 0 mm 0 W/m2
18:49 7.1 °C 3.9 °C 998.5 hPa WSW 17.7 km/h 30.6 km/h 80 % 0 mm 0 W/m2
18:54 7.1 °C 3.9 °C 998.5 hPa WSW 17.7 km/h 29 km/h 80 % 0 mm 0 W/m2
18:59 7.1 °C 3.9 °C 998.5 hPa WSW 17.7 km/h 35.4 km/h 80 % 0 mm 0 W/m2
19:04 7.1 °C 3.9 °C 998.9 hPa SW 20.9 km/h 37 km/h 80 % 0 mm 0 W/m2
19:09 7.1 °C 3.9 °C 998.9 hPa WSW 22.5 km/h 35.4 km/h 80 % 0 mm 0 W/m2
19:14 7.1 °C 3.9 °C 998.9 hPa WSW 17.7 km/h 24.1 km/h 80 % 0 mm 0 W/m2
19:19 7 °C 3.8 °C 998.9 hPa WSW 19.3 km/h 32.2 km/h 80 % 0 mm 0 W/m2
19:24 7 °C 3.8 °C 998.9 hPa SW 17.7 km/h 29 km/h 80 % 0 mm 0 W/m2
19:29 6.9 °C 3.5 °C 998.9 hPa SW 17.7 km/h 25.7 km/h 79 % 0 mm 0 W/m2
19:34 6.9 °C 3.5 °C 998.9 hPa WSW 20.9 km/h 35.4 km/h 79 % 0 mm 0 W/m2
19:44 6.8 °C 3.6 °C 998.9 hPa WSW 14.5 km/h 29 km/h 80 % 0 mm 0 W/m2
19:54 6.7 °C 3.5 °C 998.9 hPa SW 17.7 km/h 32.2 km/h 80 % 0 mm 0 W/m2
19:59 6.8 °C 3.6 °C 998.9 hPa WSW 20.9 km/h 37 km/h 80 % 0 mm 0 W/m2
20:04 6.8 °C 3.6 °C 998.9 hPa WSW 22.5 km/h 38.6 km/h 80 % 0 mm 0 W/m2
20:09 6.8 °C 3.6 °C 999.2 hPa WSW 19.3 km/h 29 km/h 80 % 0 mm 0 W/m2
20:14 6.9 °C 3.9 °C 999.2 hPa WSW 25.7 km/h 37 km/h 81 % 0 mm 0 W/m2
20:19 7.1 °C 4.1 °C 999.2 hPa WSW 24.1 km/h 43.5 km/h 81 % 0 mm 0 W/m2
20:24 7 °C 4.1 °C 999.2 hPa WSW 24.1 km/h 43.5 km/h 82 % 0 mm 0 W/m2
20:29 6.8 °C 4.1 °C 999.2 hPa SW 22.5 km/h 37 km/h 83 % 0 mm 0 W/m2
20:34 6.8 °C 4.1 °C 999.2 hPa WSW 22.5 km/h 35.4 km/h 83 % 0 mm 0 W/m2
20:39 6.8 °C 3.9 °C 999.5 hPa WSW 22.5 km/h 35.4 km/h 82 % 0 mm 0 W/m2
20:44 6.8 °C 3.9 °C 999.5 hPa SW 24.1 km/h 40.2 km/h 82 % 0 mm 0 W/m2
20:49 6.8 °C 3.9 °C 999.5 hPa SW 19.3 km/h 32.2 km/h 82 % 0 mm 0 W/m2
20:54 6.7 °C 3.8 °C 999.5 hPa WSW 19.3 km/h 29 km/h 82 % 0 mm 0 W/m2
20:59 6.7 °C 3.8 °C 999.5 hPa SW 17.7 km/h 29 km/h 82 % 0 mm 0 W/m2
21:04 6.7 °C 3.8 °C 999.5 hPa SW 22.5 km/h 32.2 km/h 82 % 0 mm 0 W/m2
21:09 6.6 °C 3.7 °C 999.9 hPa SW 16.1 km/h 30.6 km/h 82 % 0 mm 0 W/m2
21:14 6.6 °C 3.7 °C 999.5 hPa SW 20.9 km/h 32.2 km/h 82 % 0 mm 0 W/m2
21:19 6.6 °C 3.7 °C 999.5 hPa SW 14.5 km/h 25.7 km/h 82 % 0 mm 0 W/m2
21:24 6.6 °C 3.7 °C 999.5 hPa SW 20.9 km/h 32.2 km/h 82 % 0 mm 0 W/m2
21:29 6.6 °C 3.7 °C 999.5 hPa WSW 17.7 km/h 32.2 km/h 82 % 0 mm 0 W/m2
21:34 6.5 °C 3.7 °C 999.5 hPa WSW 19.3 km/h 32.2 km/h 82 % 0 mm 0 W/m2
21:39 6.4 °C 3.6 °C 999.5 hPa WSW 19.3 km/h 30.6 km/h 82 % 0 mm 0 W/m2
21:44 6.4 °C 3.6 °C 999.5 hPa SW 17.7 km/h 25.7 km/h 82 % 0 mm 0 W/m2
21:49 6.4 °C 3.7 °C 999.9 hPa SW 17.7 km/h 29 km/h 83 % 0 mm 0 W/m2
21:54 6.3 °C 3.6 °C 999.9 hPa WSW 17.7 km/h 29 km/h 83 % 0 mm 0 W/m2
21:59 6.3 °C 3.6 °C 999.9 hPa WSW 17.7 km/h 29 km/h 83 % 0 mm 0 W/m2
22:04 6.3 °C 3.6 °C 999.9 hPa SW 19.3 km/h 32.2 km/h 83 % 0 mm 0 W/m2
22:09 6.3 °C 3.6 °C 999.9 hPa SW 20.9 km/h 33.8 km/h 83 % 0 mm 0 W/m2
22:14 6.3 °C 3.6 °C 999.9 hPa WSW 20.9 km/h 32.2 km/h 83 % 0 mm 0 W/m2
22:19 6.3 °C 3.6 °C 1000.2 hPa WSW 24.1 km/h 38.6 km/h 83 % 0 mm 0 W/m2
22:24 6.3 °C 3.6 °C 1000.2 hPa SW 24.1 km/h 37 km/h 83 % 0 mm 0 W/m2
22:29 6.3 °C 3.6 °C 1000.2 hPa SW 17.7 km/h 25.7 km/h 83 % 0 mm 0 W/m2
22:34 6.2 °C 3.5 °C 1000.2 hPa SW 19.3 km/h 30.6 km/h 83 % 0 mm 0 W/m2
22:39 6.2 °C 3.5 °C 1000.2 hPa SW 20.9 km/h 32.2 km/h 83 % 0 mm 0 W/m2
22:44 6.1 °C 3.4 °C 1000.2 hPa WSW 22.5 km/h 33.8 km/h 83 % 0 mm 0 W/m2
22:50 6.1 °C 3.4 °C 1000.2 hPa WSW 20.9 km/h 33.8 km/h 83 % 0 mm 0 W/m2
22:55 6.1 °C 3.4 °C 1000.2 hPa SW 22.5 km/h 41.8 km/h 83 % 0 mm 0 W/m2
23:00 6.2 °C 3.5 °C 1000.2 hPa WSW 17.7 km/h 29 km/h 83 % 0 mm 0 W/m2
23:05 6.2 °C 3.5 °C 1000.2 hPa WSW 22.5 km/h 33.8 km/h 83 % 0 mm 0 W/m2
23:10 6.2 °C 3.3 °C 1000.2 hPa SW 20.9 km/h 32.2 km/h 82 % 0 mm 0 W/m2
23:15 6.2 °C 3.2 °C 1000.2 hPa WSW 20.9 km/h 32.2 km/h 81 % 0 mm 0 W/m2
23:20 6.3 °C 3.3 °C 1000.2 hPa SW 25.7 km/h 38.6 km/h 81 % 0 mm 0 W/m2
23:25 6.3 °C 3.3 °C 1000.2 hPa SW 19.3 km/h 32.2 km/h 81 % 0 mm 0 W/m2
23:30 6.3 °C 3.3 °C 1000.2 hPa WSW 24.1 km/h 32.2 km/h 81 % 0 mm 0 W/m2
23:35 6.3 °C 3.4 °C 1000.6 hPa WSW 22.5 km/h 35.4 km/h 82 % 0 mm 0 W/m2
23:40 6.2 °C 3.3 °C 1000.6 hPa SW 20.9 km/h 32.2 km/h 82 % 0 mm 0 W/m2
23:45 6.2 °C 3.3 °C 1000.6 hPa WSW 24.1 km/h 41.8 km/h 82 % 0 mm 0 W/m2
23:50 6.2 °C 3.3 °C 1000.6 hPa SW 20.9 km/h 32.2 km/h 82 % 0 mm 0 W/m2
23:55 6.3 °C 3.4 °C 1000.6 hPa SW 19.3 km/h 30.6 km/h 82 % 0 mm 0 W/m2
Delerius-Weather
Compliments of Weather Underground - 2 mb

Data updates at regular intervals.